createdAt,value
2023-02-17T00:00:08.072Z,112
2023-02-17T00:02:41.034Z,105
2023-02-17T00:05:17.686Z,113
2023-02-17T00:07:51.074Z,112
2023-02-17T00:10:23.808Z,114
2023-02-17T00:12:56.657Z,125
2023-02-17T00:15:29.478Z,130
2023-02-17T00:18:02.262Z,128
2023-02-17T00:20:35.556Z,128
2023-02-17T00:23:08.151Z,125
2023-02-17T00:25:41.514Z,123
2023-02-17T00:28:14.716Z,120
2023-02-17T00:30:47.364Z,123
2023-02-17T00:33:24.147Z,112
2023-02-17T00:35:57.050Z,107
2023-02-17T00:38:29.841Z,106
2023-02-17T00:41:03.005Z,111
2023-02-17T00:43:39.768Z,101
2023-02-17T00:46:16.714Z,102
2023-02-17T00:48:49.666Z,102
2023-02-17T00:51:26.565Z,96
2023-02-17T00:53:59.959Z,97
2023-02-17T00:56:36.787Z,93
2023-02-17T00:59:09.545Z,96
2023-02-17T01:01:42.529Z,92
2023-02-17T01:04:15.298Z,106
2023-02-17T01:06:48.609Z,105
2023-02-17T01:09:21.529Z,97
2023-02-17T01:12:00.487Z,112
2023-02-17T01:14:33.418Z,107
2023-02-17T01:17:06.312Z,96
2023-02-17T01:19:43.130Z,99
2023-02-17T01:22:16.118Z,100
2023-02-17T01:24:48.932Z,96
2023-02-17T01:27:21.775Z,103
2023-02-17T01:29:58.704Z,108
2023-02-17T01:32:32.029Z,108
2023-02-17T01:35:04.927Z,109
2023-02-17T01:37:42.802Z,104
2023-02-17T01:40:15.866Z,105
2023-02-17T01:42:48.576Z,105
2023-02-17T01:45:21.362Z,108
2023-02-17T01:47:54.508Z,109
2023-02-17T01:50:31.343Z,115
2023-02-17T01:53:04.139Z,108
2023-02-17T01:55:37.445Z,105
2023-02-17T01:58:10.204Z,106
2023-02-17T02:00:47.012Z,102
2023-02-17T02:03:19.933Z,100
2023-02-17T02:05:52.722Z,96
2023-02-17T02:08:26.052Z,94
2023-02-17T02:10:58.646Z,91
2023-02-17T02:13:31.528Z,90
2023-02-17T02:16:05.133Z,87
2023-02-17T02:18:37.624Z,97
2023-02-17T02:21:14.709Z,93
2023-02-17T02:23:47.448Z,91
2023-02-17T02:26:20.336Z,96
2023-02-17T02:28:53.094Z,92
2023-02-17T02:31:30.446Z,100
2023-02-17T02:34:03.228Z,103
2023-02-17T02:36:35.955Z,97
2023-02-17T02:39:08.832Z,96
2023-02-17T02:41:42.095Z,95
2023-02-17T02:44:14.772Z,99
2023-02-17T02:46:47.554Z,96
2023-02-17T02:49:20.391Z,88
2023-02-17T02:51:57.650Z,94
2023-02-17T02:54:30.485Z,92
2023-02-17T02:57:03.248Z,93
2023-02-17T02:59:36.177Z,97
2023-02-17T03:02:13.508Z,105
2023-02-17T03:04:49.131Z,102
2023-02-17T03:07:26.515Z,97
2023-02-17T03:09:59.532Z,100
2023-02-17T03:12:32.137Z,103
2023-02-17T03:15:04.918Z,104
2023-02-17T03:17:42.318Z,96
2023-02-17T03:20:15.170Z,104
2023-02-17T03:22:48.105Z,100
2023-02-17T03:25:18.824Z,100
2023-02-17T03:27:51.581Z,96
2023-02-17T03:30:24.907Z,88
2023-02-17T03:33:00.805Z,93
2023-02-17T03:35:33.441Z,102
2023-02-17T03:38:06.296Z,93
2023-02-17T03:40:43.146Z,99
2023-02-17T03:43:17.923Z,95
2023-02-17T03:45:49.305Z,97
2023-02-17T03:48:22.136Z,95
2023-02-17T03:50:55.035Z,92
2023-02-17T03:53:27.954Z,99
2023-02-17T03:56:00.799Z,97
2023-02-17T03:58:33.608Z,99
2023-02-17T04:01:06.934Z,100
2023-02-17T04:03:39.657Z,102
2023-02-17T04:06:12.428Z,92
2023-02-17T04:08:45.140Z,91
2023-02-17T04:11:18.480Z,99
2023-02-17T04:13:51.219Z,96
2023-02-17T04:16:24.128Z,101
2023-02-17T04:19:00.933Z,102
2023-02-17T04:21:33.825Z,92
2023-02-17T04:24:06.709Z,90
2023-02-17T04:26:39.927Z,94
2023-02-17T04:29:12.818Z,94
2023-02-17T04:31:49.815Z,96
2023-02-17T04:34:22.487Z,93
2023-02-17T04:36:55.438Z,92
2023-02-17T04:39:32.252Z,92
2023-02-17T04:42:05.259Z,92
2023-02-17T04:44:38.630Z,90
2023-02-17T04:47:11.389Z,97
2023-02-17T04:49:44.670Z,86
2023-02-17T04:52:16.900Z,92
2023-02-17T04:54:49.773Z,96
2023-02-17T04:57:22.702Z,92
2023-02-17T04:59:56.054Z,90
2023-02-17T05:02:29.402Z,94
2023-02-17T05:05:06.712Z,96
2023-02-17T05:07:39.642Z,92
2023-02-17T05:10:10.525Z,96
2023-02-17T05:12:43.214Z,96
2023-02-17T05:15:16.518Z,93
2023-02-17T05:17:53.292Z,98
2023-02-17T05:20:26.191Z,96
2023-02-17T05:22:58.967Z,95
2023-02-17T05:25:31.843Z,94
2023-02-17T05:28:09.071Z,96
2023-02-17T05:30:41.987Z,100
2023-02-17T05:33:14.880Z,96
2023-02-17T05:35:47.646Z,100
2023-02-17T05:38:20.851Z,97
2023-02-17T05:40:58.545Z,98
2023-02-17T05:43:29.980Z,96
2023-02-17T05:46:02.453Z,96
2023-02-17T05:48:35.579Z,99
2023-02-17T05:51:08.325Z,92
2023-02-17T05:53:45.116Z,90
2023-02-17T05:56:18.074Z,95
2023-02-17T05:58:50.873Z,96
2023-02-17T06:01:24.248Z,92
2023-02-17T06:04:00.666Z,92
2023-02-17T06:06:33.883Z,94
2023-02-17T06:09:06.774Z,89
2023-02-17T06:11:39.566Z,94
2023-02-17T06:14:12.454Z,92
2023-02-17T06:16:49.755Z,98
2023-02-17T06:19:22.681Z,88
2023-02-17T06:21:55.464Z,88
2023-02-17T06:24:28.356Z,95
2023-02-17T06:27:01.209Z,96
2023-02-17T06:29:37.972Z,101
2023-02-17T06:32:11.511Z,99
2023-02-17T06:34:44.414Z,100
2023-02-17T06:37:16.786Z,98
2023-02-17T06:39:50.016Z,89
2023-02-17T06:42:26.868Z,96
2023-02-17T06:44:59.802Z,92
2023-02-17T06:47:32.605Z,96
2023-02-17T06:50:05.347Z,92
2023-02-17T06:52:38.719Z,92
2023-02-17T06:55:11.528Z,88
2023-02-17T06:57:44.977Z,90
2023-02-17T07:00:18.171Z,91
2023-02-17T07:02:51.108Z,89
2023-02-17T07:05:24.301Z,92
2023-02-17T07:07:57.201Z,93
2023-02-17T07:10:30.032Z,94
2023-02-17T07:13:02.795Z,88
2023-02-17T07:15:35.755Z,88
2023-02-17T07:18:08.596Z,95
2023-02-17T07:20:41.536Z,95
2023-02-17T07:23:18.415Z,97
2023-02-17T07:25:51.440Z,100
2023-02-17T07:28:24.269Z,104
2023-02-17T07:30:57.221Z,100
2023-02-17T07:33:30.495Z,104
2023-02-17T07:36:03.409Z,101
2023-02-17T07:38:36.148Z,104
2023-02-17T07:41:09.028Z,105
2023-02-17T07:43:42.028Z,105
2023-02-17T07:46:14.867Z,111
2023-02-17T07:48:47.932Z,112
2023-02-17T07:51:24.737Z,107
2023-02-17T07:53:57.305Z,112
2023-02-17T07:56:34.435Z,111
2023-02-17T07:59:07.607Z,106
2023-02-17T08:01:40.977Z,105
2023-02-17T08:04:14.221Z,108
2023-02-17T08:06:51.065Z,108
2023-02-17T08:09:23.978Z,107
2023-02-17T08:11:57.748Z,107
2023-02-17T08:14:33.933Z,132
2023-02-17T08:17:06.957Z,142
2023-02-17T08:19:47.842Z,139
2023-02-17T08:22:16.636Z,185
2023-02-17T08:24:50.145Z,187
2023-02-17T08:27:22.922Z,150
2023-02-17T08:29:56.029Z,128
2023-02-17T08:32:29.419Z,130
2023-02-17T08:35:02.316Z,124
2023-02-17T08:37:35.229Z,116
2023-02-17T08:40:08.110Z,116
2023-02-17T08:42:41.101Z,126
2023-02-17T08:45:18.678Z,127
2023-02-17T08:47:50.953Z,116
2023-02-17T08:50:25.002Z,119
2023-02-17T08:52:57.786Z,112
2023-02-17T08:55:47.508Z,100
2023-02-17T08:58:12.487Z,79
2023-02-17T09:00:45.257Z,58
2023-02-17T09:03:18.771Z,56
2023-02-17T09:05:51.606Z,60
2023-02-17T09:08:24.580Z,64
2023-02-17T09:10:57.372Z,63
2023-02-17T09:13:29.619Z,52
2023-02-17T09:16:02.426Z,58
2023-02-17T09:18:39.373Z,52
2023-02-17T09:21:13.112Z,51
2023-02-17T09:23:46.953Z,52
2023-02-17T09:26:24.230Z,49
2023-02-17T09:28:57.348Z,47
2023-02-17T09:31:30.231Z,52
2023-02-17T09:34:03.916Z,52
2023-02-17T09:36:43.125Z,52
2023-02-17T09:39:20.276Z,49
2023-02-17T09:41:53.939Z,51
2023-02-17T09:44:27.202Z,53
2023-02-17T09:47:04.588Z,45
2023-02-17T09:49:38.005Z,44
2023-02-17T09:52:11.679Z,44
2023-02-17T09:54:48.877Z,44
2023-02-17T09:57:26.422Z,44
2023-02-17T09:59:58.862Z,44
2023-02-17T10:02:36.491Z,42
2023-02-17T10:05:09.965Z,44
2023-02-17T10:07:43.452Z,42
2023-02-17T10:10:19.570Z,44
2023-02-17T10:12:53.719Z,40
2023-02-17T10:15:26.905Z,41
2023-02-17T10:18:07.489Z,42
2023-02-17T10:20:47.118Z,40
2023-02-17T10:23:24.766Z,43
2023-02-17T10:25:58.513Z,44
2023-02-17T10:28:31.783Z,48
2023-02-17T10:31:09.163Z,48
2023-02-17T10:33:46.530Z,44
2023-02-17T10:36:26.860Z,43
2023-02-17T10:39:00.326Z,44
2023-02-17T10:41:37.198Z,43
2023-02-17T10:44:16.090Z,44
2023-02-17T10:46:50.198Z,41
2023-02-17T10:49:28.784Z,40
2023-02-17T10:52:05.343Z,44
2023-02-17T10:54:44.497Z,40
2023-02-17T10:57:17.158Z,42
2023-02-17T10:59:49.430Z,52
2023-02-17T11:02:26.841Z,44
2023-02-17T11:05:00.693Z,48
2023-02-17T11:07:38.742Z,47
2023-02-17T11:10:15.367Z,48
2023-02-17T11:12:48.689Z,48
2023-02-17T11:15:25.049Z,48
2023-02-17T11:17:57.840Z,48
2023-02-17T11:20:34.311Z,52
2023-02-17T11:23:07.271Z,44
2023-02-17T11:25:40.885Z,44
2023-02-17T11:28:23.975Z,44
2023-02-17T11:30:56.062Z,44
2023-02-17T11:33:35.477Z,42
2023-02-17T11:36:09.189Z,44
2023-02-17T11:38:48.405Z,48
2023-02-17T11:41:25.783Z,44
2023-02-17T11:44:03.605Z,44
2023-02-17T11:46:37.057Z,40
2023-02-17T11:49:10.669Z,40
2023-02-17T11:51:47.690Z,38
2023-02-17T11:54:24.413Z,41
2023-02-17T11:57:02.062Z,41
2023-02-17T11:59:35.370Z,36
2023-02-17T12:02:12.617Z,40
2023-02-17T12:04:45.528Z,36
2023-02-17T12:07:18.891Z,36
2023-02-17T12:09:52.811Z,36
2023-02-17T12:12:26.158Z,32
2023-02-17T12:15:04.668Z,32
2023-02-17T12:17:37.421Z,32
2023-02-17T12:20:10.990Z,32
2023-02-17T12:22:44.855Z,32
2023-02-17T12:25:21.751Z,28
2023-02-17T12:27:55.146Z,32
2023-02-17T12:30:32.575Z,32
2023-02-17T12:33:09.789Z,36
2023-02-17T12:35:47.295Z,36
2023-02-17T12:38:20.700Z,35
2023-02-17T12:40:54.577Z,32
2023-02-17T12:43:28.332Z,28
2023-02-17T12:46:01.713Z,28
2023-02-17T12:48:35.027Z,28
2023-02-17T12:51:07.879Z,28
2023-02-17T12:53:44.783Z,28
2023-02-17T12:56:18.495Z,28
2023-02-17T12:58:51.258Z,24
2023-02-17T13:01:24.809Z,24
2023-02-17T13:04:01.559Z,24
2023-02-17T13:06:42.710Z,24
2023-02-17T13:09:16.368Z,24
2023-02-17T13:11:49.699Z,24
2023-02-17T13:14:22.398Z,28
2023-02-17T13:16:59.264Z,24
2023-02-17T13:19:32.822Z,24
2023-02-17T13:22:14.654Z,24
2023-02-17T13:24:47.345Z,23
2023-02-17T13:27:20.827Z,24
2023-02-17T13:29:54.580Z,24
2023-02-17T13:32:31.754Z,24
2023-02-17T13:35:10.230Z,24
2023-02-17T13:37:51.005Z,20
2023-02-17T13:40:27.173Z,24
2023-02-17T13:43:01.120Z,24
2023-02-17T13:45:39.021Z,20
2023-02-17T13:48:11.161Z,22
2023-02-17T13:50:44.213Z,20
2023-02-17T13:53:19.022Z,20
2023-02-17T13:55:52.764Z,20
2023-02-17T13:58:26.691Z,23
2023-02-17T14:01:00.836Z,20
2023-02-17T14:03:32.802Z,24
2023-02-17T14:06:06.336Z,24
2023-02-17T14:08:43.435Z,23
2023-02-17T14:11:16.927Z,24
2023-02-17T14:13:52.739Z,24
2023-02-17T14:16:26.463Z,24
2023-02-17T14:19:03.348Z,24
2023-02-17T14:21:36.205Z,21
2023-02-17T14:24:11.744Z,21
2023-02-17T14:26:42.488Z,24
2023-02-17T14:29:17.164Z,21
2023-02-17T14:31:51.438Z,24
2023-02-17T14:34:33.071Z,24
2023-02-17T14:37:10.190Z,24
2023-02-17T14:39:48.077Z,24
2023-02-17T14:42:22.099Z,21
2023-02-17T14:44:59.645Z,20
2023-02-17T14:47:38.321Z,24
2023-02-17T14:50:22.851Z,23
2023-02-17T14:52:54.510Z,22
2023-02-17T14:55:28.211Z,24
2023-02-17T14:58:04.820Z,24
2023-02-17T15:00:37.838Z,24
2023-02-17T15:03:10.654Z,24
2023-02-17T15:05:43.560Z,24
2023-02-17T15:08:26.206Z,24
2023-02-17T15:10:58.535Z,24
2023-02-17T15:13:31.266Z,24
2023-02-17T15:16:09.070Z,24
2023-02-17T15:18:42.277Z,24
2023-02-17T15:21:20.526Z,24
2023-02-17T15:23:58.056Z,28
2023-02-17T15:26:31.278Z,24
2023-02-17T15:29:04.482Z,24
2023-02-17T15:31:42.065Z,24
2023-02-17T15:34:15.288Z,24
2023-02-17T15:36:52.235Z,24
2023-02-17T15:39:26.190Z,25
2023-02-17T15:42:03.432Z,26
2023-02-17T15:44:37.003Z,24
2023-02-17T15:47:13.588Z,28
2023-02-17T15:49:51.150Z,28
2023-02-17T15:52:28.490Z,24
2023-02-17T15:55:06.632Z,28
2023-02-17T15:57:40.376Z,28
2023-02-17T16:00:18.486Z,24
2023-02-17T16:02:51.791Z,28
2023-02-17T16:05:32.505Z,28
2023-02-17T16:08:05.322Z,28
2023-02-17T16:10:49.884Z,29
2023-02-17T16:13:23.883Z,30
2023-02-17T16:15:55.066Z,28
2023-02-17T16:18:28.366Z,28
2023-02-17T16:21:05.816Z,27
2023-02-17T16:23:40.445Z,28
2023-02-17T16:26:13.709Z,28
2023-02-17T16:28:50.420Z,27
2023-02-17T16:31:24.151Z,31
2023-02-17T16:34:04.644Z,35
2023-02-17T16:36:38.223Z,32
2023-02-17T16:39:16.338Z,32
2023-02-17T16:41:55.552Z,32
2023-02-17T16:44:32.290Z,52
2023-02-17T16:47:05.650Z,53
2023-02-17T16:49:43.281Z,52
2023-02-17T16:52:21.018Z,56
2023-02-17T16:54:53.674Z,48
2023-02-17T16:57:27.285Z,48
2023-02-17T17:00:03.424Z,49
2023-02-17T17:02:41.874Z,48
2023-02-17T17:05:14.493Z,45
2023-02-17T17:07:50.266Z,46
2023-02-17T17:10:23.581Z,52
2023-02-17T17:12:58.232Z,48
2023-02-17T17:15:35.481Z,52
2023-02-17T17:18:12.678Z,56
2023-02-17T17:20:50.265Z,56
2023-02-17T17:23:24.436Z,64
2023-02-17T17:25:57.582Z,70
2023-02-17T17:28:31.255Z,68
2023-02-17T17:31:04.252Z,68
2023-02-17T17:33:47.226Z,68
2023-02-17T17:36:25.291Z,68
2023-02-17T17:39:02.560Z,69
2023-02-17T17:41:39.612Z,80
2023-02-17T17:44:15.100Z,79
2023-02-17T17:46:47.431Z,80
2023-02-17T17:49:21.327Z,81
2023-02-17T17:51:56.909Z,84
2023-02-17T17:54:34.691Z,84
2023-02-17T17:57:12.481Z,80
2023-02-17T17:59:45.789Z,84
2023-02-17T18:02:23.326Z,85
2023-02-17T18:04:58.106Z,86
2023-02-17T18:07:36.727Z,92
2023-02-17T18:10:09.273Z,88
2023-02-17T18:12:45.343Z,88
2023-02-17T18:15:24.213Z,92
2023-02-17T18:17:57.716Z,94
2023-02-17T18:20:31.488Z,96
2023-02-17T18:23:05.132Z,94
2023-02-17T18:25:42.408Z,93
2023-02-17T18:28:17.363Z,94
2023-02-17T18:30:50.697Z,88
2023-02-17T18:33:28.338Z,80
2023-02-17T18:36:07.736Z,79
2023-02-17T18:38:40.833Z,72
2023-02-17T18:41:15.339Z,81
2023-02-17T18:43:52.558Z,92
2023-02-17T18:46:30.433Z,92
2023-02-17T18:49:03.550Z,95
2023-02-17T18:51:40.825Z,96
2023-02-17T18:54:15.040Z,104
2023-02-17T18:56:47.706Z,96
2023-02-17T18:59:25.617Z,103
2023-02-17T19:02:03.436Z,104
2023-02-17T19:04:36.554Z,96
2023-02-17T19:07:17.367Z,99
2023-02-17T19:09:58.518Z,93
2023-02-17T19:12:31.490Z,103
2023-02-17T19:15:03.546Z,100
2023-02-17T19:17:41.415Z,102
2023-02-17T19:20:19.464Z,87
2023-02-17T19:22:52.375Z,81
2023-02-17T19:25:25.525Z,76
2023-02-17T19:27:59.802Z,84
2023-02-17T19:30:39.480Z,83
2023-02-17T19:33:12.694Z,83
2023-02-17T19:35:50.290Z,85
2023-02-17T19:38:23.377Z,88
2023-02-17T19:40:57.613Z,94
2023-02-17T19:43:37.723Z,98
2023-02-17T19:46:10.608Z,95
2023-02-17T19:48:45.061Z,96
2023-02-17T19:51:23.214Z,100
2023-02-17T19:54:01.182Z,96
2023-02-17T19:56:39.307Z,85
2023-02-17T19:59:14.663Z,81
2023-02-17T20:01:47.894Z,80
2023-02-17T20:04:21.583Z,78
2023-02-17T20:06:58.380Z,74
2023-02-17T20:09:32.623Z,80
2023-02-17T20:12:09.305Z,73
2023-02-17T20:14:47.485Z,74
2023-02-17T20:17:24.628Z,80
2023-02-17T20:19:57.424Z,78
2023-02-17T20:22:35.506Z,80
2023-02-17T20:25:10.152Z,81
2023-02-17T20:27:47.470Z,80
2023-02-17T20:30:26.374Z,80
2023-02-17T20:33:02.791Z,88
2023-02-17T20:35:41.143Z,91
2023-02-17T20:38:13.820Z,92
2023-02-17T20:40:51.409Z,94
2023-02-17T20:43:24.688Z,97
2023-02-17T20:46:02.778Z,99
2023-02-17T20:48:35.792Z,99
2023-02-17T20:51:14.951Z,96
2023-02-17T20:53:48.580Z,103
2023-02-17T20:56:25.656Z,95
2023-02-17T20:59:03.839Z,94
2023-02-17T21:01:40.990Z,92
2023-02-17T21:04:18.755Z,88
2023-02-17T21:06:57.279Z,80
2023-02-17T21:09:34.008Z,74
2023-02-17T21:12:10.761Z,72
2023-02-17T21:14:48.711Z,68
2023-02-17T21:17:24.748Z,68
2023-02-17T21:20:02.842Z,68
2023-02-17T21:22:34.911Z,70
2023-02-17T21:25:08.703Z,72
2023-02-17T21:27:45.882Z,68
2023-02-17T21:30:23.001Z,68
2023-02-17T21:32:56.881Z,68
2023-02-17T21:35:33.554Z,71
2023-02-17T21:38:06.557Z,68
2023-02-17T21:40:40.119Z,72
2023-02-17T21:43:13.567Z,73
2023-02-17T21:45:47.773Z,80
2023-02-17T21:48:25.043Z,86
2023-02-17T21:50:58.751Z,92
2023-02-17T21:53:37.790Z,88
2023-02-17T21:56:15.115Z,80
2023-02-17T21:58:49.661Z,89
2023-02-17T22:01:22.719Z,88
2023-02-17T22:03:56.907Z,88
2023-02-17T22:06:29.539Z,89
2023-02-17T22:09:08.361Z,86
2023-02-17T22:11:41.675Z,85
2023-02-17T22:14:18.800Z,90
2023-02-17T22:16:51.602Z,95
2023-02-17T22:19:31.063Z,100
2023-02-17T22:22:04.420Z,102
2023-02-17T22:24:43.229Z,101
2023-02-17T22:29:49.580Z,99
2023-02-17T22:32:27.038Z,101
2023-02-17T22:35:04.648Z,89
2023-02-17T22:37:41.829Z,94
2023-02-17T22:40:19.605Z,96
2023-02-17T22:42:58.236Z,88
2023-02-17T22:45:31.647Z,96
2023-02-17T22:48:08.838Z,96
2023-02-17T22:50:42.613Z,95
2023-02-17T22:53:15.696Z,95
2023-02-17T22:55:49.268Z,91
2023-02-17T22:58:26.679Z,92
2023-02-17T23:01:00.258Z,95
2023-02-17T23:03:37.732Z,92
2023-02-17T23:06:10.608Z,97
2023-02-17T23:08:43.402Z,94
2023-02-17T23:11:16.851Z,98
2023-02-17T23:13:53.180Z,88
2023-02-17T23:16:26.234Z,86
2023-02-17T23:18:59.565Z,77
2023-02-17T23:21:32.094Z,83
2023-02-17T23:24:08.382Z,110
2023-02-17T23:26:40.768Z,112
2023-02-17T23:29:18.007Z,116
2023-02-17T23:31:51.007Z,115
2023-02-17T23:34:23.622Z,111
2023-02-17T23:36:55.142Z,103
2023-02-17T23:39:31.867Z,97
2023-02-17T23:42:08.815Z,84
2023-02-17T23:44:45.792Z,80
2023-02-17T23:47:18.790Z,86
2023-02-17T23:49:51.593Z,84
2023-02-17T23:52:24.387Z,76
2023-02-17T23:55:06.222Z,76
2023-02-17T23:57:39.536Z,80
